Time;durP1;ratioP1;P1;durP2;ratioP2;P2;SDS_P1;SDS_P2;PMS_P1;PMS_P2;Temp;Humidity;BMP_temperature;BMP_pressure;BME280_temperature;BME280_humidity;BME280_pressure;Samples;Min_cycle;Max_cycle;Signal;HPM_P1;HPM_P2
2022/02/18 00:00:39;;;;;;;23.42;8.15;;;20.10;99.90;;;;;;4192943;28;20276;-73
2022/02/18 00:02:41;;;;;;;21.38;8.55;;;20.10;99.90;;;;;;4193377;28;20764;-72
2022/02/18 00:04:43;;;;;;;20.02;7.70;;;20.10;99.90;;;;;;4193191;28;20257;-73
2022/02/18 00:06:46;;;;;;;23.20;8.02;;;20.10;99.90;;;;;;4193258;28;21104;-72
2022/02/18 00:08:51;;;;;;;19.90;7.72;;;20.10;99.90;;;;;;4191996;28;20269;-72
2022/02/18 00:10:58;;;;;;;19.70;7.20;;;20.10;99.90;;;;;;4192478;28;20269;-73
2022/02/18 00:13:00;;;;;;;22.40;7.50;;;20.10;99.90;;;;;;4191526;28;20268;-72
2022/02/18 00:15:05;;;;;;;18.13;7.70;;;20.10;99.90;;;;;;4192137;28;20273;-72
2022/02/18 00:17:07;;;;;;;19.13;7.80;;;20.10;99.90;;;;;;4192849;28;20243;-72
2022/02/18 00:19:09;;;;;;;22.08;8.18;;;20.10;99.90;;;;;;4192323;28;20663;-72
2022/02/18 00:21:13;;;;;;;18.20;7.78;;;20.10;99.90;;;;;;4192395;28;20245;-72
2022/02/18 00:23:15;;;;;;;16.75;7.35;;;20.10;99.90;;;;;;4192266;28;20215;-72
2022/02/18 00:25:19;;;;;;;18.92;7.85;;;20.10;99.90;;;;;;4190606;28;20528;-72
2022/02/18 00:27:22;;;;;;;20.90;8.35;;;20.10;99.90;;;;;;4191910;28;20255;-73
2022/02/18 00:29:24;;;;;;;16.27;7.30;;;20.10;99.90;;;;;;4191931;28;20280;-73
2022/02/18 00:31:27;;;;;;;21.13;8.35;;;20.00;99.90;;;;;;4191273;28;20219;-73
2022/02/18 00:33:29;;;;;;;15.60;7.72;;;20.10;99.90;;;;;;4191475;28;20207;-72
2022/02/18 00:35:32;;;;;;;16.90;7.82;;;20.00;99.90;;;;;;4191200;28;20216;-73
2022/02/18 00:37:34;;;;;;;19.23;7.65;;;20.10;99.90;;;;;;4191839;28;20239;-72
2022/02/18 00:39:37;;;;;;;19.50;7.45;;;20.00;99.90;;;;;;4191383;28;20215;-72
2022/02/18 00:41:41;;;;;;;19.38;8.13;;;20.10;99.90;;;;;;4190353;28;20277;-72
2022/02/18 00:43:44;;;;;;;19.73;8.23;;;20.10;99.90;;;;;;4192706;28;20622;-72
2022/02/18 00:45:48;;;;;;;17.95;7.55;;;20.10;99.90;;;;;;4192460;28;20268;-73
2022/02/18 00:47:50;;;;;;;20.55;8.07;;;20.10;99.90;;;;;;4191478;28;20660;-72
2022/02/18 00:49:53;;;;;;;19.90;7.93;;;20.00;99.90;;;;;;4190108;28;20219;-72
2022/02/18 00:51:55;;;;;;;18.55;7.60;;;20.00;99.90;;;;;;4191656;28;20233;-72
2022/02/18 00:53:58;;;;;;;18.77;7.32;;;20.00;99.90;;;;;;4191347;28;20668;-73
2022/02/18 00:56:00;;;;;;;21.13;7.93;;;20.00;99.90;;;;;;4192080;28;20272;-72
2022/02/18 00:58:04;;;;;;;18.90;7.80;;;20.00;99.90;;;;;;4191488;28;21107;-73
2022/02/18 01:00:09;;;;;;;23.00;8.10;;;20.00;99.90;;;;;;4190574;28;20222;-73
2022/02/18 01:02:11;;;;;;;20.05;8.02;;;20.00;99.90;;;;;;4191241;28;20207;-72
2022/02/18 01:04:14;;;;;;;23.30;8.05;;;20.00;99.90;;;;;;4191099;28;20284;-72
2022/02/18 01:06:16;;;;;;;17.60;7.53;;;20.00;99.90;;;;;;4191303;28;20622;-72
2022/02/18 01:08:19;;;;;;;18.67;7.38;;;20.00;99.90;;;;;;4192686;28;20508;-72
2022/02/18 01:10:21;;;;;;;20.20;7.88;;;20.00;99.90;;;;;;4191493;28;20206;-73
2022/02/18 01:12:24;;;;;;;16.90;7.45;;;19.90;99.90;;;;;;4193246;28;20204;-72
2022/02/18 01:14:28;;;;;;;19.92;7.35;;;20.00;99.90;;;;;;4191943;28;20207;-72
2022/02/18 01:16:30;;;;;;;20.17;7.75;;;19.90;99.90;;;;;;4190769;28;20664;-73
2022/02/18 01:18:32;;;;;;;19.98;7.78;;;19.90;99.90;;;;;;4191270;28;20612;-73
2022/02/18 01:20:35;;;;;;;20.08;7.90;;;19.90;99.90;;;;;;4191743;28;20265;-73
2022/02/18 01:22:37;;;;;;;17.23;7.25;;;19.90;99.90;;;;;;4190197;28;20219;-73
2022/02/18 01:24:40;;;;;;;20.85;8.02;;;20.00;99.90;;;;;;4192001;28;20211;-72
2022/02/18 01:26:42;;;;;;;18.58;7.35;;;19.90;99.90;;;;;;4192488;28;20223;-72
2022/02/18 01:28:44;;;;;;;17.23;7.47;;;19.90;99.90;;;;;;4191926;28;20276;-73
2022/02/18 01:30:48;;;;;;;18.80;7.13;;;19.90;99.90;;;;;;4191527;28;20569;-73
2022/02/18 01:32:51;;;;;;;19.75;7.70;;;19.90;99.90;;;;;;4189916;28;20219;-72
2022/02/18 01:34:54;;;;;;;17.77;7.05;;;19.90;99.90;;;;;;4191872;28;20230;-72
2022/02/18 01:36:57;;;;;;;19.98;7.53;;;19.90;99.90;;;;;;4191713;28;20211;-72
2022/02/18 01:38:59;;;;;;;20.42;7.30;;;19.90;99.90;;;;;;4190472;28;20895;-72
2022/02/18 01:41:01;;;;;;;19.65;7.30;;;19.90;99.90;;;;;;4191886;28;20791;-72
2022/02/18 01:43:04;;;;;;;19.80;7.53;;;19.90;99.90;;;;;;4191958;28;20282;-72
2022/02/18 01:45:07;;;;;;;19.27;7.43;;;19.90;99.90;;;;;;4191692;28;20215;-72
2022/02/18 01:47:15;;;;;;;20.02;7.50;;;19.90;99.90;;;;;;4191471;28;20741;-73
2022/02/18 01:49:17;;;;;;;19.67;7.95;;;19.90;99.90;;;;;;4189952;28;20206;-72
2022/02/18 01:51:21;;;;;;;19.05;7.50;;;19.90;99.90;;;;;;4191523;28;20215;-73
2022/02/18 01:53:23;;;;;;;19.38;6.97;;;19.80;99.90;;;;;;4192219;28;20294;-72
2022/02/18 01:55:25;;;;;;;18.63;7.53;;;19.80;99.90;;;;;;4190895;28;20215;-72
2022/02/18 01:57:29;;;;;;;18.20;7.38;;;19.80;99.90;;;;;;4191824;28;20615;-72
2022/02/18 01:59:31;;;;;;;17.00;7.00;;;19.80;99.90;;;;;;4191274;28;20256;-72
2022/02/18 02:01:33;;;;;;;19.58;7.03;;;19.90;99.90;;;;;;4191525;28;20742;-72
2022/02/18 02:03:37;;;;;;;16.50;6.95;;;19.90;99.90;;;;;;4191382;28;20628;-73
2022/02/18 02:05:40;;;;;;;20.67;7.28;;;19.80;99.90;;;;;;4190813;28;20257;-72
2022/02/18 02:07:43;;;;;;;18.92;6.97;;;19.90;99.90;;;;;;4190286;28;20218;-73
2022/02/18 02:09:46;;;;;;;20.45;7.43;;;19.90;99.90;;;;;;4191409;28;20268;-72
2022/02/18 02:11:48;;;;;;;20.55;7.25;;;19.80;99.90;;;;;;4190244;28;20211;-72
2022/02/18 02:13:50;;;;;;;16.60;7.90;;;19.80;99.90;;;;;;4190366;28;20219;-72
2022/02/18 02:15:53;;;;;;;18.67;6.82;;;19.80;99.90;;;;;;4190938;28;20219;-73
2022/02/18 02:17:59;;;;;;;16.58;7.28;;;19.80;99.90;;;;;;4190892;28;20697;-73
2022/02/18 02:20:05;;;;;;;16.10;6.78;;;19.80;99.90;;;;;;4191032;28;20329;-73
2022/02/18 02:22:08;;;;;;;19.30;6.80;;;19.80;99.90;;;;;;4191047;28;20284;-72
2022/02/18 02:24:12;;;;;;;16.33;6.95;;;19.80;99.90;;;;;;4190398;28;20697;-72
2022/02/18 02:26:17;;;;;;;16.67;6.70;;;19.80;99.90;;;;;;4191473;28;20229;-72
2022/02/18 02:28:20;;;;;;;17.75;6.72;;;19.80;99.90;;;;;;4191377;28;20249;-73
2022/02/18 02:30:22;;;;;;;17.58;6.93;;;19.80;99.90;;;;;;4190273;28;20244;-72
2022/02/18 02:32:25;;;;;;;16.60;6.85;;;19.80;99.90;;;;;;4191042;28;20210;-72
2022/02/18 02:34:27;;;;;;;20.05;7.10;;;19.80;99.90;;;;;;4191043;28;20211;-72
2022/02/18 02:36:30;;;;;;;21.13;7.05;;;19.80;99.90;;;;;;4191477;28;20625;-72
2022/02/18 02:38:32;;;;;;;14.98;7.07;;;19.80;99.90;;;;;;4189464;28;20235;-72
2022/02/18 02:40:36;;;;;;;18.70;6.95;;;19.80;99.90;;;;;;4190189;28;20226;-72
2022/02/18 02:42:38;;;;;;;16.95;6.68;;;19.70;99.90;;;;;;4190466;28;20264;-72
2022/02/18 02:44:41;;;;;;;16.40;6.35;;;19.80;99.90;;;;;;4190919;28;20222;-72
2022/02/18 02:46:43;;;;;;;19.30;7.10;;;19.80;99.90;;;;;;4189145;28;20222;-72
2022/02/18 02:48:46;;;;;;;18.77;6.45;;;19.80;99.90;;;;;;4193423;28;20211;-72
2022/02/18 02:50:48;;;;;;;15.15;6.18;;;19.80;99.90;;;;;;4194353;28;20227;-72
2022/02/18 02:52:50;;;;;;;18.60;7.15;;;19.80;99.90;;;;;;4193592;28;20215;-72
2022/02/18 02:54:53;;;;;;;17.73;6.68;;;19.80;99.90;;;;;;4193856;28;20273;-72
2022/02/18 02:56:57;;;;;;;18.48;7.53;;;19.80;99.90;;;;;;4192775;28;20211;-72
2022/02/18 02:59:00;;;;;;;16.75;6.85;;;19.80;99.90;;;;;;4192839;28;20692;-72
2022/02/18 03:01:02;;;;;;;17.77;7.25;;;19.80;99.90;;;;;;4194129;28;20222;-72
2022/02/18 03:03:04;;;;;;;19.10;6.97;;;19.80;99.90;;;;;;4192254;28;20234;-72
2022/02/18 03:05:08;;;;;;;20.17;6.60;;;19.80;99.90;;;;;;4194602;28;20241;-72
2022/02/18 03:07:10;;;;;;;15.52;6.47;;;19.70;99.90;;;;;;4192722;28;20211;-72
2022/02/18 03:09:14;;;;;;;22.00;6.88;;;19.80;99.90;;;;;;4193429;28;20265;-72
2022/02/18 03:11:16;;;;;;;17.02;6.68;;;19.70;99.90;;;;;;4193625;28;20215;-72
2022/02/18 03:13:19;;;;;;;18.27;6.43;;;19.80;99.90;;;;;;4193345;28;20280;-72
2022/02/18 03:15:22;;;;;;;14.98;6.60;;;19.80;99.90;;;;;;4192960;28;20211;-72
2022/02/18 03:17:25;;;;;;;16.00;6.43;;;19.70;99.90;;;;;;4193432;28;20272;-72
2022/02/18 03:19:27;;;;;;;18.10;6.20;;;19.70;99.90;;;;;;4193733;28;20250;-72
2022/02/18 03:21:29;;;;;;;19.60;7.07;;;19.70;99.90;;;;;;4192648;28;20265;-72
2022/02/18 03:23:32;;;;;;;12.32;6.60;;;19.70;99.90;;;;;;4193081;28;20292;-72
2022/02/18 03:25:34;;;;;;;16.73;6.57;;;19.70;99.90;;;;;;4193702;28;20273;-72
2022/02/18 03:27:37;;;;;;;13.82;5.90;;;19.70;99.90;;;;;;4192584;28;20265;-72
2022/02/18 03:29:41;;;;;;;13.85;6.00;;;19.70;99.90;;;;;;4193592;28;20614;-72
2022/02/18 03:31:44;;;;;;;16.30;6.63;;;19.70;99.90;;;;;;4192157;28;20223;-72
2022/02/18 03:33:46;;;;;;;16.42;6.53;;;19.70;99.90;;;;;;4193830;28;20252;-72
2022/02/18 03:35:48;;;;;;;16.60;6.93;;;19.70;99.90;;;;;;4194100;28;20721;-72
2022/02/18 03:37:51;;;;;;;17.80;6.60;;;19.70;99.90;;;;;;4192494;28;20219;-72
2022/02/18 03:39:53;;;;;;;17.48;6.30;;;19.70;99.90;;;;;;4193570;28;20231;-73
2022/02/18 03:41:55;;;;;;;15.88;6.30;;;19.70;99.90;;;;;;4193418;28;20219;-72
2022/02/18 03:43:58;;;;;;;18.10;6.68;;;19.60;99.90;;;;;;4193190;28;20304;-72
2022/02/18 03:46:02;;;;;;;17.33;6.50;;;19.70;99.90;;;;;;4192387;28;20218;-72
2022/02/18 03:48:05;;;;;;;13.35;6.20;;;19.60;99.90;;;;;;4191960;28;20214;-72
2022/02/18 03:50:08;;;;;;;17.45;6.57;;;19.70;99.90;;;;;;4192349;28;20215;-73
2022/02/18 03:52:11;;;;;;;14.73;6.30;;;19.70;99.90;;;;;;4192840;28;20257;-72
2022/02/18 03:54:13;;;;;;;17.33;7.07;;;19.70;99.90;;;;;;4192360;28;21791;-75
2022/02/18 03:56:16;;;;;;;14.85;6.35;;;19.70;99.90;;;;;;4193858;28;20211;-75
2022/02/18 03:58:18;;;;;;;15.75;6.45;;;19.70;99.90;;;;;;4193113;28;20675;-75
2022/02/18 04:00:20;;;;;;;18.33;6.32;;;19.60;99.90;;;;;;4192208;28;20211;-75
2022/02/18 04:02:24;;;;;;;14.35;6.10;;;19.60;99.90;;;;;;4192777;28;20215;-74
2022/02/18 04:04:26;;;;;;;13.85;6.38;;;19.60;99.90;;;;;;4192982;28;20635;-75
2022/02/18 04:06:29;;;;;;;18.45;6.45;;;19.60;99.90;;;;;;4191378;28;20280;-74
2022/02/18 04:08:31;;;;;;;16.40;6.60;;;19.70;99.90;;;;;;4193177;28;20211;-75
2022/02/18 04:10:33;;;;;;;18.50;6.07;;;19.60;99.90;;;;;;4192956;28;20211;-75
2022/02/18 04:12:36;;;;;;;17.67;5.63;;;19.60;99.90;;;;;;4192056;28;20214;-75
2022/02/18 04:14:38;;;;;;;14.52;5.93;;;19.60;99.90;;;;;;4192490;28;20219;-75
2022/02/18 04:16:41;;;;;;;16.25;5.38;;;19.60;99.90;;;;;;4192622;28;20621;-75
2022/02/18 04:18:44;;;;;;;13.85;6.18;;;19.60;99.90;;;;;;4193243;28;20245;-72
2022/02/18 04:20:47;;;;;;;13.02;5.75;;;19.60;99.90;;;;;;4192818;28;20717;-73
2022/02/18 04:22:49;;;;;;;14.77;5.82;;;19.60;99.90;;;;;;4192016;28;20261;-72
2022/02/18 04:24:52;;;;;;;13.90;5.50;;;19.60;99.90;;;;;;4193099;28;20253;-72
2022/02/18 04:26:54;;;;;;;14.88;5.60;;;19.60;99.90;;;;;;4190347;28;20223;-73
2022/02/18 04:28:57;;;;;;;15.25;5.65;;;19.60;99.80;;;;;;4191396;28;20242;-72
2022/02/18 04:30:59;;;;;;;15.90;5.93;;;19.60;99.80;;;;;;4193105;28;20215;-72
2022/02/18 04:33:02;;;;;;;15.98;5.70;;;19.60;99.90;;;;;;4192403;28;20258;-72
2022/02/18 04:35:07;;;;;;;13.95;5.80;;;19.60;99.80;;;;;;4193633;28;20215;-72
2022/02/18 04:37:09;;;;;;;16.40;5.82;;;19.60;99.80;;;;;;4192283;28;20265;-72
2022/02/18 04:39:11;;;;;;;13.07;5.90;;;19.60;99.80;;;;;;4191230;28;20296;-72
2022/02/18 04:41:14;;;;;;;15.57;6.15;;;19.60;99.90;;;;;;4192388;28;20269;-72
2022/02/18 04:43:16;;;;;;;14.50;5.70;;;19.60;99.80;;;;;;4192175;28;20227;-72
2022/02/18 04:45:19;;;;;;;15.75;6.28;;;19.60;99.80;;;;;;4192542;28;20661;-72
2022/02/18 04:47:21;;;;;;;15.48;6.05;;;19.60;99.70;;;;;;4192293;28;20211;-72
2022/02/18 04:49:23;;;;;;;14.10;6.28;;;19.60;99.70;;;;;;4192305;28;20257;-73
2022/02/18 04:51:27;;;;;;;14.50;6.07;;;19.50;99.80;;;;;;4192067;28;20280;-72
2022/02/18 04:53:30;;;;;;;11.68;5.65;;;19.50;99.80;;;;;;4192299;28;20260;-73
2022/02/18 04:55:32;;;;;;;16.48;6.05;;;19.50;99.80;;;;;;4190954;28;20273;-72
2022/02/18 04:57:34;;;;;;;15.95;6.50;;;19.50;99.80;;;;;;4190375;28;20273;-74
2022/02/18 04:59:37;;;;;;;14.05;5.97;;;19.50;99.80;;;;;;4192173;28;20288;-74
2022/02/18 05:01:39;;;;;;;16.48;6.20;;;19.50;99.80;;;;;;4192594;28;20212;-74
2022/02/18 05:03:41;;;;;;;18.23;6.45;;;19.50;99.80;;;;;;4191203;28;20292;-74
2022/02/18 05:05:44;;;;;;;13.00;5.57;;;19.50;99.90;;;;;;4192347;28;20223;-74
2022/02/18 05:07:47;;;;;;;14.68;5.72;;;19.50;99.80;;;;;;4191778;28;20869;-74
2022/02/18 05:09:50;;;;;;;15.82;6.07;;;19.50;99.90;;;;;;4191979;28;20253;-76
2022/02/18 05:11:52;;;;;;;15.82;5.53;;;19.50;99.90;;;;;;4191841;28;20207;-76
2022/02/18 05:13:54;;;;;;;15.43;6.07;;;19.50;99.90;;;;;;4189710;28;20268;-76
2022/02/18 05:15:57;;;;;;;15.60;5.80;;;19.50;99.90;;;;;;4192301;28;20207;-76
2022/02/18 05:18:02;;;;;;;11.38;5.00;;;19.40;99.90;;;;;;4192011;28;20312;-76
2022/02/18 05:20:05;;;;;;;16.02;5.45;;;19.50;99.90;;;;;;4189574;28;20329;-76
2022/02/18 05:22:08;;;;;;;15.85;5.60;;;19.50;99.90;;;;;;4192090;28;20211;-76
2022/02/18 05:24:11;;;;;;;16.02;5.72;;;19.40;99.90;;;;;;4192241;28;20222;-76
2022/02/18 05:26:15;;;;;;;16.13;5.97;;;19.50;99.90;;;;;;4191912;28;20265;-77
2022/02/18 05:28:17;;;;;;;14.70;5.65;;;19.40;99.90;;;;;;4192394;28;20211;-76
2022/02/18 05:30:20;;;;;;;14.27;5.85;;;19.40;99.90;;;;;;4189459;28;20219;-76
2022/02/18 05:32:22;;;;;;;13.02;5.88;;;19.50;99.90;;;;;;4190637;28;20215;-76
2022/02/18 05:34:24;;;;;;;13.38;5.53;;;19.40;99.90;;;;;;4190833;28;20279;-76
2022/02/18 05:36:27;;;;;;;13.60;5.93;;;19.40;99.90;;;;;;4190181;28;20223;-76
2022/02/18 05:38:30;;;;;;;14.10;5.22;;;19.50;99.90;;;;;;4191321;28;20215;-76
2022/02/18 05:40:33;;;;;;;13.13;5.43;;;19.40;99.90;;;;;;4191820;28;20254;-76
2022/02/18 05:42:36;;;;;;;14.10;5.25;;;19.50;99.90;;;;;;4191610;28;20223;-76
2022/02/18 05:44:38;;;;;;;14.35;6.22;;;19.50;99.90;;;;;;4190936;28;20223;-76
2022/02/18 05:46:40;;;;;;;13.30;4.85;;;19.40;99.90;;;;;;4191593;28;20223;-76
2022/02/18 05:48:43;;;;;;;12.55;5.65;;;19.40;99.90;;;;;;4189286;28;20663;-76
2022/02/18 05:50:45;;;;;;;14.13;5.18;;;19.40;99.90;;;;;;4191160;28;20233;-76
2022/02/18 05:52:47;;;;;;;13.40;5.60;;;19.50;99.90;;;;;;4191386;28;20226;-76
2022/02/18 05:54:50;;;;;;;12.57;5.40;;;19.30;99.90;;;;;;4190030;28;20218;-76
2022/02/18 05:56:53;;;;;;;14.32;5.43;;;19.20;99.90;;;;;;4191501;28;20211;-76
2022/02/18 05:58:56;;;;;;;12.18;4.95;;;19.20;99.90;;;;;;4191466;28;20211;-76
2022/02/18 06:00:58;;;;;;;11.77;4.55;;;19.20;99.90;;;;;;4191035;28;20658;-77
2022/02/18 06:03:00;;;;;;;13.70;5.07;;;19.30;99.90;;;;;;4190940;28;20280;-76
2022/02/18 06:05:03;;;;;;;13.25;4.75;;;19.30;99.90;;;;;;4190201;28;20223;-76
2022/02/18 06:07:05;;;;;;;11.20;4.57;;;19.40;99.90;;;;;;4191397;28;20211;-76
2022/02/18 06:09:08;;;;;;;13.35;4.80;;;19.30;99.90;;;;;;4191151;28;20219;-76
2022/02/18 06:11:11;;;;;;;13.30;5.15;;;19.40;99.90;;;;;;4189791;28;20725;-77
2022/02/18 06:13:14;;;;;;;12.13;4.55;;;19.30;99.90;;;;;;4191290;28;20240;-76
2022/02/18 06:15:17;;;;;;;14.00;4.80;;;19.30;99.90;;;;;;4189017;28;20261;-76
2022/02/18 06:17:19;;;;;;;12.05;5.10;;;19.30;99.90;;;;;;4191289;28;20210;-76
2022/02/18 06:19:22;;;;;;;10.02;4.22;;;19.30;99.90;;;;;;4191545;28;20198;-77
2022/02/18 06:21:24;;;;;;;8.00;3.50;;;19.30;99.90;;;;;;4188783;28;20242;-76
2022/02/18 06:23:27;;;;;;;10.93;4.22;;;19.30;99.90;;;;;;4190660;28;20215;-76
2022/02/18 06:25:30;;;;;;;10.25;4.60;;;19.30;99.90;;;;;;4191332;28;20207;-74
2022/02/18 06:27:32;;;;;;;9.75;4.38;;;19.30;99.90;;;;;;4189920;28;20273;-74
2022/02/18 06:29:36;;;;;;;11.15;4.57;;;19.40;99.90;;;;;;4190737;28;20252;-74
2022/02/18 06:31:38;;;;;;;9.95;4.78;;;19.40;99.90;;;;;;4191145;28;20226;-74
2022/02/18 06:33:45;;;;;;;11.60;4.25;;;19.40;99.90;;;;;;4191339;28;20264;-74
2022/02/18 06:35:47;;;;;;;11.85;4.47;;;19.40;99.90;;;;;;4190805;28;20215;-74
2022/02/18 06:37:49;;;;;;;11.15;4.28;;;19.40;99.90;;;;;;4190078;28;20211;-74
2022/02/18 06:39:52;;;;;;;10.32;4.35;;;19.40;99.90;;;;;;4189561;28;20215;-74
2022/02/18 06:41:54;;;;;;;12.00;4.35;;;19.50;99.90;;;;;;4190784;28;20219;-74
2022/02/18 06:43:56;;;;;;;8.63;4.40;;;19.50;99.90;;;;;;4189243;28;20743;-74
2022/02/18 06:46:00;;;;;;;10.63;4.65;;;19.50;99.90;;;;;;4190147;28;20223;-74
2022/02/18 06:48:03;;;;;;;11.38;4.03;;;19.50;99.90;;;;;;4190991;28;20215;-74
2022/02/18 06:50:06;;;;;;;8.20;3.83;;;19.50;99.90;;;;;;4190107;28;20725;-74
2022/02/18 06:52:09;;;;;;;7.95;3.35;;;19.50;99.90;;;;;;4190874;28;20215;-74
2022/02/18 06:54:12;;;;;;;8.25;3.70;;;19.50;99.90;;;;;;4190821;28;20219;-73
2022/02/18 06:56:14;;;;;;;7.88;3.33;;;19.50;99.90;;;;;;4190586;28;20225;-73
2022/02/18 06:58:16;;;;;;;7.93;3.47;;;19.50;99.90;;;;;;4190979;28;20223;-73
2022/02/18 07:00:19;;;;;;;7.45;3.63;;;19.60;99.90;;;;;;4190556;28;20250;-73
2022/02/18 07:02:23;;;;;;;8.52;3.80;;;19.60;99.90;;;;;;4189847;28;20276;-73
2022/02/18 07:04:28;;;;;;;8.05;3.25;;;19.60;99.90;;;;;;4190404;28;20211;-73
2022/02/18 07:06:33;;;;;;;6.35;3.38;;;19.60;99.90;;;;;;4191212;28;20625;-73
2022/02/18 07:08:37;;;;;;;6.72;3.35;;;19.60;99.90;;;;;;4190814;28;20269;-73
2022/02/18 07:10:41;;;;;;;10.65;3.33;;;19.60;99.90;;;;;;4190464;28;20215;-73
2022/02/18 07:12:43;;;;;;;7.57;3.28;;;19.60;99.90;;;;;;4189457;28;20223;-73
2022/02/18 07:14:46;;;;;;;7.40;3.65;;;19.60;99.90;;;;;;4190933;28;20241;-73
2022/02/18 07:16:48;;;;;;;9.00;3.65;;;19.70;99.90;;;;;;4191038;28;20280;-73
2022/02/18 07:18:52;;;;;;;7.93;3.35;;;19.60;99.90;;;;;;4191027;28;20223;-73
2022/02/18 07:20:55;;;;;;;5.95;2.83;;;19.70;99.90;;;;;;4190771;28;20281;-73
2022/02/18 07:22:58;;;;;;;8.77;3.40;;;19.70;99.90;;;;;;4190109;28;20219;-73
2022/02/18 07:25:01;;;;;;;7.22;3.75;;;19.70;99.90;;;;;;4190866;28;20238;-73
2022/02/18 07:27:04;;;;;;;6.88;3.33;;;19.70;99.90;;;;;;4190954;28;20219;-73
2022/02/18 07:29:06;;;;;;;6.47;2.80;;;19.80;99.90;;;;;;4189339;28;20281;-73
2022/02/18 07:31:09;;;;;;;6.88;3.40;;;19.70;99.90;;;;;;4191195;28;20979;-73
2022/02/18 07:33:11;;;;;;;5.85;2.45;;;19.70;99.90;;;;;;4190610;28;20219;-73
2022/02/18 07:35:15;;;;;;;6.85;2.92;;;19.80;99.90;;;;;;4191221;28;20211;-73
2022/02/18 07:37:17;;;;;;;7.40;2.90;;;19.80;99.90;;;;;;4193567;28;20329;-73
2022/02/18 07:39:20;;;;;;;7.97;2.63;;;19.80;99.90;;;;;;4193555;28;20284;-73
2022/02/18 07:41:22;;;;;;;6.57;2.80;;;19.80;99.90;;;;;;4193272;28;20261;-73
2022/02/18 07:43:24;;;;;;;7.88;3.40;;;19.90;99.90;;;;;;4193627;28;20219;-73
2022/02/18 07:45:27;;;;;;;6.00;3.03;;;19.90;99.90;;;;;;4194040;28;20219;-73
2022/02/18 07:47:29;;;;;;;7.30;3.10;;;19.90;99.90;;;;;;4192155;28;20277;-73
2022/02/18 07:49:32;;;;;;;9.45;3.63;;;19.90;99.90;;;;;;4191780;28;20268;-72
2022/02/18 07:51:35;;;;;;;4.28;2.55;;;19.80;99.90;;;;;;4188737;28;20211;-72
2022/02/18 07:53:39;;;;;;;8.63;3.50;;;19.50;99.90;;;;;;4188619;28;20280;-72
2022/02/18 07:55:41;;;;;;;8.90;2.50;;;19.30;99.90;;;;;;4194872;28;20771;-74
2022/02/18 07:57:43;;;;;;;8.50;2.17;;;19.50;99.90;;;;;;4195401;28;20219;-72
2022/02/18 07:59:47;;;;;;;9.55;2.88;;;19.70;99.90;;;;;;4193801;28;20219;-73
2022/02/18 08:01:49;;;;;;;8.10;3.10;;;19.80;99.90;;;;;;4194181;28;20400;-73
2022/02/18 08:03:52;;;;;;;6.18;2.42;;;19.90;99.90;;;;;;4187245;28;20305;-73
2022/02/18 08:05:55;;;;;;;8.32;2.47;;;20.00;99.90;;;;;;4195272;28;20659;-73
2022/02/18 08:08:00;;;;;;;7.20;2.95;;;20.10;99.90;;;;;;4186964;28;20271;-73
2022/02/18 08:10:04;;;;;;;5.70;2.35;;;20.10;99.90;;;;;;4190722;28;21832;-73
2022/02/18 08:12:07;;;;;;;12.88;2.65;;;20.20;99.90;;;;;;4190603;28;20237;-72
2022/02/18 08:14:09;;;;;;;8.32;2.80;;;20.20;99.90;;;;;;4193623;28;20258;-73
2022/02/18 08:16:13;;;;;;;8.48;3.20;;;20.30;99.90;;;;;;4192604;28;20601;-72
2022/02/18 08:18:19;;;;;;;7.82;2.58;;;20.30;99.90;;;;;;4194138;28;20592;-73
2022/02/18 08:20:22;;;;;;;7.30;2.88;;;20.30;99.90;;;;;;4193812;28;20272;-73
2022/02/18 08:22:27;;;;;;;3.92;2.35;;;20.30;99.90;;;;;;4194275;28;20613;-72
2022/02/18 08:24:31;;;;;;;7.57;2.60;;;20.30;99.90;;;;;;4191114;28;20606;-72
2022/02/18 08:26:33;;;;;;;10.50;2.85;;;20.30;99.90;;;;;;4191009;28;20261;-72
2022/02/18 08:28:36;;;;;;;13.57;3.35;;;20.40;99.90;;;;;;4194004;28;20615;-72
2022/02/18 08:30:38;;;;;;;6.07;2.80;;;20.40;99.90;;;;;;4191031;28;20219;-71
2022/02/18 08:32:41;;;;;;;5.80;2.42;;;20.40;99.90;;;;;;4193183;28;20222;-72
2022/02/18 08:34:43;;;;;;;6.47;2.40;;;20.60;99.90;;;;;;4190870;28;20276;-72
2022/02/18 08:36:45;;;;;;;22.17;4.00;;;20.60;99.90;;;;;;4191192;28;20261;-73
2022/02/18 08:38:48;;;;;;;9.48;2.65;;;20.50;99.90;;;;;;4190048;28;20216;-74
2022/02/18 08:40:52;;;;;;;7.85;2.85;;;20.60;99.90;;;;;;4189921;28;20359;-73
2022/02/18 08:42:54;;;;;;;6.95;2.88;;;20.60;99.90;;;;;;4192220;28;20247;-73
2022/02/18 08:44:56;;;;;;;8.10;2.70;;;20.60;99.90;;;;;;4184792;28;20215;-73
2022/02/18 08:46:59;;;;;;;5.45;2.70;;;20.60;99.90;;;;;;4189410;28;20211;-74
2022/02/18 08:49:03;;;;;;;9.30;2.80;;;20.60;99.90;;;;;;4184715;28;20300;-72
2022/02/18 08:51:05;;;;;;;7.07;2.40;;;20.70;99.90;;;;;;4187979;28;20212;-73
2022/02/18 08:53:07;;;;;;;6.93;2.90;;;20.70;99.90;;;;;;4191171;28;20244;-73
2022/02/18 08:55:12;;;;;;;6.93;2.20;;;20.70;99.90;;;;;;4189680;28;20573;-72
2022/02/18 08:57:16;;;;;;;10.85;2.78;;;20.70;99.90;;;;;;4191074;28;20311;-74
2022/02/18 08:59:19;;;;;;;7.15;3.05;;;20.70;99.90;;;;;;4194002;28;20211;-73
2022/02/18 09:01:21;;;;;;;6.93;2.88;;;20.80;99.90;;;;;;4192390;28;20215;-73
2022/02/18 09:03:24;;;;;;;10.68;2.80;;;20.80;99.90;;;;;;4188976;28;20227;-73
2022/02/18 09:05:27;;;;;;;11.02;3.40;;;20.80;99.90;;;;;;4183017;28;21480;-71
2022/02/18 09:07:30;;;;;;;12.88;2.47;;;20.80;99.90;;;;;;4187379;28;20219;-72
2022/02/18 09:09:33;;;;;;;8.52;2.67;;;20.90;99.90;;;;;;4189867;28;20623;-72
2022/02/18 09:11:35;;;;;;;14.63;3.33;;;20.90;99.90;;;;;;4189579;28;20235;-73
2022/02/18 09:13:39;;;;;;;8.07;3.03;;;20.90;99.90;;;;;;4191490;28;20718;-73
2022/02/18 09:15:41;;;;;;;7.88;2.72;;;21.00;99.90;;;;;;4194570;28;20214;-71
2022/02/18 09:17:44;;;;;;;7.88;2.78;;;21.00;99.90;;;;;;4188987;28;20212;-72
2022/02/18 09:19:48;;;;;;;5.00;2.45;;;21.00;99.90;;;;;;4190901;28;20210;-72
2022/02/18 09:21:50;;;;;;;5.43;2.70;;;21.00;99.90;;;;;;4188300;28;20239;-71
2022/02/18 09:23:52;;;;;;;5.18;2.83;;;21.00;99.90;;;;;;4194341;28;20265;-71
2022/02/18 09:25:55;;;;;;;5.72;2.67;;;21.10;99.90;;;;;;4194801;28;20219;-71
2022/02/18 09:27:59;;;;;;;10.38;3.28;;;21.10;99.90;;;;;;4190613;28;20216;-72
2022/02/18 09:30:04;;;;;;;16.38;3.67;;;21.10;99.90;;;;;;4186585;28;20212;-71
2022/02/18 09:32:07;;;;;;;13.02;3.53;;;21.10;99.90;;;;;;4188546;28;20219;-71
2022/02/18 09:34:09;;;;;;;11.50;3.05;;;21.10;99.90;;;;;;4193752;28;20211;-72
2022/02/18 09:36:13;;;;;;;10.40;2.75;;;21.20;99.90;;;;;;4190913;28;20219;-71
2022/02/18 09:38:16;;;;;;;11.30;2.92;;;21.20;99.90;;;;;;4184777;28;20253;-71
2022/02/18 09:40:18;;;;;;;5.80;2.58;;;21.20;99.90;;;;;;4190471;28;20308;-72
2022/02/18 09:42:21;;;;;;;8.57;2.55;;;21.20;99.90;;;;;;4188255;28;20284;-72
2022/02/18 09:44:25;;;;;;;5.95;2.45;;;21.20;99.90;;;;;;4191528;28;20276;-71
2022/02/18 09:46:30;;;;;;;5.75;1.95;;;21.20;99.90;;;;;;4189799;28;20215;-72
2022/02/18 09:48:35;;;;;;;5.78;2.20;;;21.20;99.90;;;;;;4192949;28;20579;-72
2022/02/18 09:50:38;;;;;;;5.97;2.25;;;21.30;99.90;;;;;;4191820;28;20223;-72
2022/02/18 09:52:40;;;;;;;6.78;2.72;;;21.20;99.90;;;;;;4189704;28;20211;-72
2022/02/18 09:54:43;;;;;;;8.18;2.63;;;21.20;99.90;;;;;;4194121;28;20260;-72
2022/02/18 09:56:47;;;;;;;8.02;2.38;;;21.30;99.90;;;;;;4193050;28;20211;-72
2022/02/18 09:58:50;;;;;;;11.65;2.63;;;21.30;99.90;;;;;;4188996;28;20268;-73
2022/02/18 10:00:52;;;;;;;7.97;2.50;;;21.20;99.90;;;;;;4188313;28;20206;-73
2022/02/18 10:02:56;;;;;;;5.15;2.00;;;21.20;99.90;;;;;;4189625;28;20296;-73
2022/02/18 10:04:58;;;;;;;8.70;3.20;;;21.30;99.90;;;;;;4192588;28;20275;-73
2022/02/18 10:07:03;;;;;;;7.70;2.75;;;21.30;99.90;;;;;;4189649;28;20269;-73
2022/02/18 10:09:05;;;;;;;6.93;2.63;;;21.30;99.90;;;;;;4190699;28;20557;-73
2022/02/18 10:11:08;;;;;;;4.22;2.10;;;21.40;99.90;;;;;;4193677;28;20256;-73
2022/02/18 10:13:29;;;;;;;7.13;2.53;;;21.40;99.90;;;;;;4195886;28;20256;-73
2022/02/18 10:15:43;;;;;;;6.75;2.60;;;21.40;99.90;;;;;;4191284;28;20264;-72
2022/02/18 10:17:46;;;;;;;4.55;2.28;;;21.40;99.90;;;;;;4187983;28;20207;-72
2022/02/18 10:19:56;;;;;;;7.03;2.55;;;21.50;99.90;;;;;;4182904;28;20262;-73
2022/02/18 10:22:03;;;;;;;5.18;2.33;;;21.50;99.90;;;;;;4187955;28;20995;-73
2022/02/18 10:24:12;;;;;;;9.68;2.47;;;21.50;99.90;;;;;;4191299;28;20258;-73
2022/02/18 10:26:15;;;;;;;8.52;2.70;;;21.50;99.90;;;;;;4191043;28;20214;-74
2022/02/18 10:28:19;;;;;;;8.85;2.80;;;21.50;99.90;;;;;;4191095;28;20269;-74
2022/02/18 10:30:23;;;;;;;9.88;2.70;;;21.50;99.90;;;;;;4191146;28;20206;-76
2022/02/18 10:32:26;;;;;;;12.00;2.72;;;21.50;99.90;;;;;;4190120;28;20249;-75
2022/02/18 10:34:29;;;;;;;9.57;2.20;;;21.50;99.90;;;;;;4188766;28;20222;-74